TimeEDT,TemperatureF,Dew PointF,Humidity,Sea Level PressureIn,VisibilityMPH,Wind Direction,Wind SpeedMPH,Gust SpeedMPH,PrecipitationIn,Events,Conditions,WindDirDegrees,DateUTC
12:15 AM,55.4,53.6,94,30.22,10.0,SW,3.5,-,N/A,,Clear,230,2013-05-26 04:15:00
12:35 AM,55.4,53.6,94,30.21,10.0,Calm,Calm,-,N/A,,Clear,0,2013-05-26 04:35:00
12:55 AM,55.4,53.6,94,30.21,10.0,Calm,Calm,-,N/A,,Clear,0,2013-05-26 04:55:00
1:15 AM,53.6,53.6,100,30.20,10.0,SW,3.5,-,N/A,,Clear,220,2013-05-26 05:15:00
1:35 AM,53.6,53.6,100,30.20,10.0,SW,4.6,-,N/A,,Clear,230,2013-05-26 05:35:00
1:55 AM,53.6,53.6,100,30.19,10.0,SW,4.6,-,N/A,,Clear,220,2013-05-26 05:55:00
2:15 AM,53.6,53.6,100,30.19,10.0,SW,3.5,-,N/A,,Clear,230,2013-05-26 06:15:00
2:35 AM,53.6,53.6,100,30.18,10.0,Calm,Calm,-,N/A,,Clear,0,2013-05-26 06:35:00
2:55 AM,53.6,53.6,100,30.18,10.0,WSW,4.6,-,N/A,,Clear,240,2013-05-26 06:55:00
3:15 AM,53.6,53.6,100,30.19,10.0,WSW,3.5,-,N/A,,Clear,250,2013-05-26 07:15:00
3:35 AM,53.6,53.6,100,30.19,10.0,WSW,4.6,-,N/A,,Clear,250,2013-05-26 07:35:00
3:55 AM,53.6,53.6,100,30.19,10.0,WSW,3.5,-,N/A,,Clear,250,2013-05-26 07:55:00
4:15 AM,53.6,53.6,100,30.19,10.0,Calm,Calm,-,N/A,,Clear,0,2013-05-26 08:15:00
4:35 AM,53.6,53.6,100,30.19,10.0,WSW,3.5,-,N/A,,Clear,250,2013-05-26 08:35:00
4:55 AM,53.6,53.6,100,30.19,10.0,Calm,Calm,-,N/A,,Clear,0,2013-05-26 08:55:00
5:15 AM,53.6,53.6,100,30.20,10.0,Calm,Calm,-,N/A,,Scattered Clouds,0,2013-05-26 09:15:00
5:35 AM,53.6,53.6,100,30.20,10.0,SW,3.5,-,N/A,,Clear,230,2013-05-26 09:35:00
5:55 AM,53.6,53.6,100,30.21,10.0,WSW,3.5,-,N/A,,Clear,240,2013-05-26 09:55:00
6:15 AM,53.6,53.6,100,30.21,10.0,Calm,Calm,-,N/A,,Clear,0,2013-05-26 10:15:00
6:35 AM,53.6,53.6,100,30.22,10.0,Calm,Calm,-,N/A,,Clear,0,2013-05-26 10:35:00
6:55 AM,53.6,53.6,100,30.23,10.0,WSW,3.5,-,N/A,,Clear,250,2013-05-26 10:55:00
7:15 AM,55.4,55.4,100,30.24,10.0,Calm,Calm,-,N/A,,Clear,0,2013-05-26 11:15:00
7:35 AM,59.0,59.0,100,30.24,10.0,WNW,3.5,-,N/A,,Clear,300,2013-05-26 11:35:00
7:55 AM,59.0,59.0,100,30.25,10.0,NNW,3.5,-,N/A,,Scattered Clouds,330,2013-05-26 11:55:00
8:15 AM,60.8,59.0,94,30.25,10.0,NW,4.6,-,N/A,,Clear,310,2013-05-26 12:15:00
8:35 AM,60.8,59.0,94,30.26,10.0,NW,3.5,-,N/A,,Clear,320,2013-05-26 12:35:00
8:55 AM,62.6,57.2,82,30.27,10.0,WNW,4.6,-,N/A,,Scattered Clouds,290,2013-05-26 12:55:00
9:15 AM,64.4,57.2,77,30.27,10.0,WNW,8.1,-,N/A,,Scattered Clouds,290,2013-05-26 13:15:00
9:35 AM,64.4,57.2,77,30.27,10.0,WNW,8.1,-,N/A,,Clear,300,2013-05-26 13:35:00
9:55 AM,66.2,57.2,73,30.27,10.0,WNW,8.1,-,N/A,,Clear,300,2013-05-26 13:55:00
10:15 AM,68.0,57.2,68,30.27,10.0,West,4.6,-,N/A,,Clear,280,2013-05-26 14:15:00
10:35 AM,69.8,59.0,68,30.28,10.0,NW,8.1,-,N/A,,Clear,320,2013-05-26 14:35:00
10:55 AM,69.8,57.2,64,30.27,10.0,WNW,6.9,-,N/A,,Clear,300,2013-05-26 14:55:00
11:15 AM,69.8,55.4,60,30.28,10.0,WNW,8.1,-,N/A,,Clear,300,2013-05-26 15:15:00
11:35 AM,71.6,55.4,57,30.27,10.0,North,3.5,-,N/A,,Clear,10,2013-05-26 15:35:00
11:55 AM,71.6,55.4,57,30.27,10.0,NW,3.5,-,N/A,,Clear,320,2013-05-26 15:55:00
12:15 PM,71.6,55.4,57,30.26,10.0,Calm,Calm,-,N/A,,Clear,0,2013-05-26 16:15:00
12:35 PM,73.4,53.6,50,30.25,10.0,WSW,4.6,-,N/A,,Clear,240,2013-05-26 16:35:00
12:55 PM,75.2,55.4,50,30.24,10.0,Calm,Calm,-,N/A,,Clear,0,2013-05-26 16:55:00
1:15 PM,77.0,55.4,47,30.24,10.0,SW,6.9,-,N/A,,Clear,220,2013-05-26 17:15:00
1:35 PM,77.0,55.4,47,30.23,10.0,West,3.5,-,N/A,,Clear,280,2013-05-26 17:35:00
1:55 PM,77.0,55.4,47,30.22,10.0,South,4.6,-,N/A,,Clear,170,2013-05-26 17:55:00
2:15 PM,78.8,55.4,44,30.22,10.0,NW,5.8,-,N/A,,Clear,320,2013-05-26 18:15:00
2:35 PM,77.0,60.8,57,30.22,10.0,East,11.5,17.3,N/A,,Clear,100,2013-05-26 18:35:00
2:55 PM,75.2,60.8,61,30.22,10.0,ESE,10.4,-,N/A,,Scattered Clouds,120,2013-05-26 18:55:00
3:15 PM,77.0,60.8,57,30.21,10.0,East,9.2,-,N/A,,Clear,100,2013-05-26 19:15:00
3:35 PM,77.0,60.8,57,30.21,10.0,ESE,11.5,-,N/A,,Clear,120,2013-05-26 19:35:00
3:55 PM,77.0,60.8,57,30.20,10.0,ESE,10.4,16.1,N/A,,Scattered Clouds,110,2013-05-26 19:55:00
4:15 PM,77.0,60.8,57,30.19,10.0,ESE,12.7,-,N/A,,Scattered Clouds,120,2013-05-26 20:15:00
4:35 PM,77.0,62.6,61,30.19,10.0,East,12.7,16.1,N/A,,Clear,100,2013-05-26 20:35:00
4:55 PM,75.2,62.6,65,30.19,10.0,ESE,12.7,-,N/A,,Clear,120,2013-05-26 20:55:00
5:15 PM,75.2,62.6,65,30.19,10.0,ESE,9.2,-,N/A,,Clear,110,2013-05-26 21:15:00
5:35 PM,75.2,62.6,65,30.19,10.0,ESE,10.4,-,N/A,,Clear,110,2013-05-26 21:35:00
5:55 PM,75.2,64.4,69,30.19,10.0,ESE,10.4,-,N/A,,Scattered Clouds,120,2013-05-26 21:55:00
6:15 PM,73.4,64.4,73,30.19,10.0,East,9.2,-,N/A,,Mostly Cloudy,100,2013-05-26 22:15:00
6:35 PM,71.6,62.6,73,30.19,10.0,East,8.1,-,N/A,,Overcast,100,2013-05-26 22:35:00
6:55 PM,71.6,62.6,73,30.19,10.0,ESE,6.9,-,N/A,,Mostly Cloudy,110,2013-05-26 22:55:00
7:15 PM,73.4,60.8,65,30.19,10.0,SSE,5.8,-,N/A,,Mostly Cloudy,160,2013-05-26 23:15:00
7:35 PM,71.6,60.8,69,30.19,10.0,SSE,4.6,-,N/A,,Overcast,150,2013-05-26 23:35:00
7:55 PM,71.6,60.8,69,30.20,10.0,Calm,Calm,-,N/A,,Scattered Clouds,0,2013-05-26 23:55:00
8:15 PM,69.8,62.6,78,30.19,10.0,Calm,Calm,-,N/A,,Mostly Cloudy,0,2013-05-27 00:15:00
8:35 PM,69.8,60.8,73,30.20,10.0,Calm,Calm,-,N/A,,Mostly Cloudy,0,2013-05-27 00:35:00
8:55 PM,68.0,60.8,78,30.20,10.0,Calm,Calm,-,N/A,,Scattered Clouds,0,2013-05-27 00:55:00
9:15 PM,66.2,60.8,83,30.21,10.0,Calm,Calm,-,N/A,,Clear,0,2013-05-27 01:15:00
9:35 PM,66.2,60.8,83,30.21,10.0,Calm,Calm,-,N/A,,Clear,0,2013-05-27 01:35:00
9:55 PM,64.4,60.8,88,30.22,10.0,Calm,Calm,-,N/A,,Clear,0,2013-05-27 01:55:00
10:15 PM,64.4,60.8,88,30.22,10.0,Calm,Calm,-,N/A,,Clear,0,2013-05-27 02:15:00
10:35 PM,64.4,60.8,88,30.23,10.0,Calm,Calm,-,N/A,,Clear,0,2013-05-27 02:35:00
10:55 PM,62.6,60.8,94,30.23,10.0,Calm,Calm,-,N/A,,Clear,0,2013-05-27 02:55:00
11:15 PM,62.6,60.8,94,30.23,10.0,Calm,Calm,-,N/A,,Clear,0,2013-05-27 03:15:00
11:35 PM,62.6,62.6,100,30.23,10.0,Calm,Calm,-,N/A,,Clear,0,2013-05-27 03:35:00
11:55 PM,62.6,62.6,100,30.23,10.0,Calm,Calm,-,N/A,,Clear,0,2013-05-27 03:55:00